Weather at Downtown Airport

Public forecast

Using degrees Fahrenheit for public forecast. Weather courtesy of forecast.io.

Closest aviation weather report (METAR) to Downtown Airport

Closest report is Springfield Branson National Airport, 6.8 nm (12.7 km) WNW. Retrieved 2022/08/09 15:37 UTC (12 minutes ago):

KSGF 091537Z 32005KT 10SM SCT004 OVC065 22/21 A3012 RMK AO2 RAE29 P0005 T02220211

Closest aviation forecast (TAF) to Downtown Airport

Closest forecast is Springfield Branson National Airport, 6.8 nm (12.7 km) WNW. Retrieved 2022/08/09 12:24 UTC (3 hours ago):

TAF KSGF 091122Z 0912/1012 VRB04KT P6SM VCTS FEW035 BKN070CB FM091500 VRB05KT P6SM BKN040 FM091900 25006KT P6SM VCTS SCT070CB FM092100 31006KT P6SM SCT080 PROB30 0921/1003 4SM TSRA BR OVC025CB